Time;durP1;ratioP1;P1;durP2;ratioP2;P2;SDS_P1;SDS_P2;PMS_P1;PMS_P2;Temp;Humidity;BMP_temperature;BMP_pressure;BME280_temperature;BME280_humidity;BME280_pressure;Samples;Min_cycle;Max_cycle;Signal;HPM_P1;HPM_P2
2023/03/07 00:00:41;;;;;;;79.63;5.20;;;;;;;21.88;54.13;97986.19;7305540;19;129252;-43
2023/03/07 00:03:08;;;;;;;13.10;1.97;;;;;;;21.77;54.38;97965.69;7308589;19;129853;-42
2023/03/07 00:05:33;;;;;;;;;;;;;;;21.85;53.96;97982.13;7307704;19;129126;-42
2023/03/07 00:07:58;;;;;;;87.87;5.80;;;;;;;21.85;54.56;97983.91;7304371;19;129643;-39
2023/03/07 00:10:24;;;;;;;62.73;4.17;;;;;;;21.84;54.27;97982.28;7306796;19;128908;-43
2023/03/07 00:12:49;;;;;;;44.60;3.40;;;;;;;21.82;54.55;97979.88;7308140;19;129626;-42
2023/03/07 00:15:16;;;;;;;62.80;4.82;;;;;;;21.81;54.06;97983.47;7299812;19;129295;-43
2023/03/07 00:17:42;;;;;;;61.88;4.13;;;;;;;21.79;53.95;97975.00;7308801;19;129713;-43
2023/03/07 00:20:10;;;;;;;44.50;3.50;;;;;;;21.78;54.27;97975.19;7306876;19;129149;-38
2023/03/07 00:22:36;;;;;;;41.53;2.88;;;;;;;21.70;54.25;97960.34;7306712;19;129200;-42
2023/03/07 00:25:02;;;;;;;105.30;6.85;;;;;;;21.76;54.65;97977.97;7304939;19;129788;-43
2023/03/07 00:27:30;;;;;;;50.65;3.35;;;;;;;21.75;54.52;97967.66;7306079;19;129768;-42
2023/03/07 00:29:56;;;;;;;72.10;4.53;;;;;;;21.73;55.10;97965.19;7306313;19;130449;-43
2023/03/07 00:32:21;;;;;;;83.18;5.78;;;;;;;21.72;54.93;97966.22;7306913;19;130950;-44
2023/03/07 00:34:46;;;;;;;34.97;3.05;;;;;;;21.71;54.78;97972.44;7307661;19;129512;-40
2023/03/07 00:37:14;;;;;;;54.80;3.87;;;;;;;21.71;55.00;97971.63;7305243;19;129923;-43
2023/03/07 00:39:40;;;;;;;46.70;3.25;;;;;;;21.60;54.32;97938.88;7306674;19;129187;-42
2023/03/07 00:42:05;;;;;;;61.00;4.13;;;;;;;21.69;54.91;97948.25;7306359;19;129245;-40
2023/03/07 00:44:31;;;;;;;36.58;2.83;;;;;;;21.68;54.67;97951.84;7306887;19;129065;-40
2023/03/07 00:46:57;;;;;;;48.70;3.17;;;;;;;21.67;55.11;97952.84;7305383;19;129473;-41
2023/03/07 00:49:22;;;;;;;45.22;3.42;;;;;;;21.68;55.15;97951.06;7306626;19;128925;-43
2023/03/07 00:51:48;;;;;;;40.38;3.00;;;;;;;21.64;54.79;97937.53;7310745;19;129386;-39
2023/03/07 00:54:13;;;;;;;37.83;3.17;;;;;;;21.54;54.94;97930.94;7313737;19;129713;-40
2023/03/07 00:56:39;;;;;;;68.50;4.43;;;;;;;21.63;54.61;97935.91;7312522;19;131771;-42
2023/03/07 00:59:04;;;;;;;58.42;4.00;;;;;;;21.63;55.23;97928.06;7314181;19;129081;-41
2023/03/07 01:01:30;;;;;;;33.17;2.30;;;;;;;21.62;55.39;97942.13;7313334;19;129300;-43
2023/03/07 01:03:55;;;;;;;38.80;2.95;;;;;;;21.59;55.24;97925.97;7313828;19;130984;-38
2023/03/07 01:06:24;;;;;;;51.72;3.28;;;;;;;21.58;55.59;97924.38;7312211;19;129295;-38
2023/03/07 01:08:49;;;;;;;47.83;3.55;;;;;;;21.57;54.88;97923.53;7315229;19;129269;-42
2023/03/07 01:11:15;;;;;;;47.15;3.53;;;;;;;21.54;55.12;97918.66;7310611;19;129296;-39
2023/03/07 01:13:41;;;;;;;70.65;4.65;;;;;;;21.57;55.30;97920.91;7304515;19;130068;-39
2023/03/07 01:16:21;;;;;;;43.42;2.92;;;;;;;21.57;55.96;97914.88;7311591;19;130227;-44
2023/03/07 01:18:52;;;;;;;50.80;3.38;;;;;;;21.52;55.73;97904.97;7308968;19;129626;-39
2023/03/07 01:21:20;;;;;;;47.30;3.25;;;;;;;21.50;55.78;97906.16;7310772;19;129001;-39
2023/03/07 01:23:46;;;;;;;64.88;4.15;;;;;;;21.52;55.31;97904.97;7311582;19;130888;-38
2023/03/07 01:26:13;;;;;;;56.83;3.85;;;;;;;21.51;55.75;97902.53;7310563;19;129147;-44
2023/03/07 01:28:39;;;;;;;67.60;4.20;;;;;;;21.50;55.19;97896.47;7314474;19;129864;-43
2023/03/07 01:31:04;;;;;;;53.40;3.85;;;;;;;21.49;55.52;97889.63;7307922;19;130354;-37
2023/03/07 01:33:30;;;;;;;38.80;2.83;;;;;;;21.47;55.56;97883.78;7310786;19;129596;-41
2023/03/07 01:35:55;;;;;;;62.77;4.07;;;;;;;21.45;55.84;97874.50;7310798;19;129119;-37
2023/03/07 01:38:20;;;;;;;79.17;4.63;;;;;;;21.43;55.69;97873.88;7312931;19;129468;-42
2023/03/07 01:40:46;;;;;;;49.72;3.28;;;;;;;21.42;55.51;97873.03;7310632;19;128845;-43
2023/03/07 01:43:22;;;;;;;45.67;3.20;;;;;;;21.42;56.68;97862.59;7313849;19;129347;-40
2023/03/07 01:45:47;;;;;;;19.13;1.92;;;;;;;21.41;55.78;97855.75;7311734;19;130471;-42
2023/03/07 01:48:13;;;;;;;61.83;3.80;;;;;;;21.41;55.95;97853.13;7313517;19;129199;-40
2023/03/07 01:50:39;;;;;;;77.13;4.95;;;;;;;21.31;55.78;97833.47;7310464;19;129150;-43
2023/03/07 01:53:05;;;;;;;33.50;2.70;;;;;;;21.38;56.27;97850.88;7310463;19;130187;-43
2023/03/07 01:55:32;;;;;;;32.53;2.67;;;;;;;21.38;56.04;97843.03;7312349;19;130370;-42
2023/03/07 01:58:03;;;;;;;59.97;3.72;;;;;;;21.38;55.81;97835.19;7313550;19;129219;-43
2023/03/07 02:00:28;;;;;;;57.55;4.00;;;;;;;21.36;55.70;97842.41;7310627;19;129145;-43
2023/03/07 02:03:02;;;;;;;43.30;2.92;;;;;;;21.34;56.54;97831.31;7307845;19;129389;-44
2023/03/07 02:05:34;;;;;;;17.58;1.75;;;;;;;21.35;55.78;97830.34;7311466;19;129420;-40
2023/03/07 02:08:01;;;;;;;52.55;3.38;;;;;;;21.33;56.23;97828.88;7312426;19;129114;-38
2023/03/07 02:10:29;;;;;;;47.53;3.00;;;;;;;21.33;56.26;97827.09;7311129;19;129036;-43
2023/03/07 02:12:54;;;;;;;73.10;4.97;;;;;;;21.32;56.03;97825.44;7305665;19;129677;-38
2023/03/07 02:15:20;;;;;;;46.63;3.17;;;;;;;21.31;56.44;97823.84;7308879;19;129438;-39
2023/03/07 02:17:46;;;;;;;47.93;3.37;;;;;;;21.31;56.10;97818.59;7312781;19;129382;-41
2023/03/07 02:20:33;;;;;;;51.90;3.47;;;;;;;21.32;56.02;97817.59;7310777;19;129113;-43
2023/03/07 02:22:58;;;;;;;49.72;3.15;;;;;;;21.31;56.31;97815.16;7312195;19;129088;-41
2023/03/07 02:25:39;;;;;;;33.45;2.58;;;;;;;21.27;56.51;97819.94;7310594;19;130038;-38
2023/03/07 02:28:09;;;;;;;20.95;2.10;;;;;;;21.28;56.61;97815.53;7312427;19;128895;-42
2023/03/07 02:30:36;;;;;;;83.68;5.18;;;;;;;21.25;56.14;97813.28;7309344;19;129301;-41
2023/03/07 02:33:01;;;;;;;51.83;3.40;;;;;;;21.25;56.08;97808.88;7307618;19;131073;-39
2023/03/07 02:35:26;;;;;;;41.10;2.78;;;;;;;21.27;56.62;97806.88;7311767;19;130281;-41
2023/03/07 02:38:02;;;;;;;50.53;3.30;;;;;;;21.15;56.84;97795.28;7310710;19;129290;-40
2023/03/07 02:40:30;;;;;;;41.40;2.75;;;;;;;21.26;57.62;97810.50;7309418;19;129344;-44
2023/03/07 02:43:01;;;;;;;53.47;3.42;;;;;;;21.24;56.43;97804.63;7310567;19;129438;-42
2023/03/07 02:45:26;;;;;;;71.57;4.10;;;;;;;21.21;56.30;97796.34;7307768;19;129642;-42
2023/03/07 02:47:51;;;;;;;39.72;2.65;;;;;;;21.22;56.56;97792.75;7311198;19;129917;-43
2023/03/07 02:50:17;;;;;;;65.25;4.07;;;;;;;21.23;56.32;97791.75;7308510;19;129958;-41
2023/03/07 02:52:42;;;;;;;48.05;3.13;;;;;;;21.22;56.83;97784.91;7310779;19;129532;-44
2023/03/07 02:55:09;;;;;;;149.95;9.50;;;;;;;21.25;56.75;97781.94;7308602;19;129179;-42
2023/03/07 02:57:34;;;;;;;60.37;3.70;;;;;;;21.20;56.47;97769.41;7310654;19;129160;-42
2023/03/07 03:00:00;;;;;;;38.70;2.63;;;;;;;21.22;56.18;97766.63;7309733;19;128955;-43
2023/03/07 03:02:26;;;;;;;45.37;2.87;;;;;;;21.21;56.80;97770.19;7311660;19;130137;-43
2023/03/07 03:04:51;;;;;;;59.03;3.57;;;;;;;21.19;56.68;97761.75;7309180;19;129386;-41
2023/03/07 03:07:17;;;;;;;58.97;3.72;;;;;;;21.19;56.57;97746.88;7308829;19;129736;-43
2023/03/07 03:09:42;;;;;;;43.42;2.78;;;;;;;21.17;56.73;97742.81;7311548;19;129118;-42
2023/03/07 03:12:08;;;;;;;68.10;4.10;;;;;;;21.18;56.50;97745.25;7309029;19;129299;-44
2023/03/07 03:14:33;;;;;;;34.53;2.53;;;;;;;21.18;56.19;97745.25;7312062;19;129693;-43
2023/03/07 03:16:58;;;;;;;43.20;3.20;;;;;;;21.17;56.53;97746.22;7304804;19;129146;-40
2023/03/07 03:19:24;;;;;;;32.88;2.58;;;;;;;21.16;57.12;97736.78;7311808;19;129121;-41
2023/03/07 03:21:49;;;;;;;55.90;3.55;;;;;;;21.14;55.83;97738.75;7311620;19;131192;-43
2023/03/07 03:24:15;;;;;;;65.40;4.03;;;;;;;21.11;56.70;97728.69;7306106;19;131222;-40
2023/03/07 03:26:40;;;;;;;38.67;2.58;;;;;;;21.14;56.35;97722.28;7311164;19;129615;-43
2023/03/07 03:29:06;;;;;;;22.55;1.95;;;;;;;21.13;56.64;97726.69;7310245;19;129055;-44
2023/03/07 03:31:32;;;;;;;65.45;3.97;;;;;;;21.13;57.06;97724.09;7294883;19;131020;-41
2023/03/07 03:33:58;;;;;;;31.95;2.42;;;;;;;21.11;57.18;97723.44;7307188;19;129888;-41
2023/03/07 03:36:25;;;;;;;37.28;2.60;;;;;;;21.11;56.40;97722.63;7308736;19;129440;-44
2023/03/07 03:38:55;;;;;;;47.65;3.08;;;;;;;21.10;56.37;97715.78;7311223;19;129185;-41
2023/03/07 03:41:21;;;;;;;140.65;8.05;;;;;;;21.10;56.56;97711.38;7296891;19;130685;-39
2023/03/07 03:43:47;;;;;;;42.80;2.73;;;;;;;21.09;57.26;97725.44;7289582;19;130427;-38
2023/03/07 03:46:12;;;;;;;50.60;3.42;;;;;;;21.05;56.89;97707.69;7305907;19;129556;-43
2023/03/07 03:48:39;;;;;;;40.58;2.88;;;;;;;21.09;56.73;97707.13;7310314;19;129056;-38
2023/03/07 03:51:04;;;;;;;75.45;4.35;;;;;;;21.07;56.94;97701.31;7302768;19;131132;-41
2023/03/07 03:53:32;;;;;;;57.90;3.95;;;;;;;21.04;56.83;97695.63;7307385;19;131406;-43
2023/03/07 03:56:02;;;;;;;32.63;2.30;;;;;;;21.07;57.16;97696.09;7308884;19;129403;-42
2023/03/07 03:58:28;;;;;;;49.72;3.22;;;;;;;21.06;57.40;97696.22;7307812;19;129878;-41
2023/03/07 04:00:53;;;;;;;57.42;3.63;;;;;;;21.05;57.24;97703.28;7307768;19;129732;-40
2023/03/07 04:03:18;;;;;;;59.28;3.72;;;;;;;21.05;56.66;97692.84;7307049;19;130663;-40
2023/03/07 04:05:43;;;;;;;40.63;3.00;;;;;;;21.01;57.31;97690.75;7308309;19;129153;-42
2023/03/07 04:08:09;;;;;;;126.53;7.17;;;;;;;21.04;57.36;97688.59;7307528;19;129423;-43
2023/03/07 04:10:34;;;;;;;57.83;3.47;;;;;;;21.02;57.03;97685.38;7304720;19;130151;-38
2023/03/07 04:12:59;;;;;;;43.08;2.83;;;;;;;21.00;57.25;97684.72;7308727;19;129229;-42
2023/03/07 04:15:25;;;;;;;35.78;2.85;;;;;;;21.00;56.82;97678.69;7305777;19;129817;-40
2023/03/07 04:17:50;;;;;;;52.60;3.28;;;;;;;21.03;57.38;97679.13;7310001;19;129346;-43
2023/03/07 04:20:16;;;;;;;59.60;3.70;;;;;;;20.98;57.35;97676.25;7308404;19;129683;-44
2023/03/07 04:22:41;;;;;;;22.77;1.98;;;;;;;20.95;56.83;97654.88;7309264;19;129870;-42
2023/03/07 04:25:07;;;;;;;104.45;6.88;;;;;;;21.01;56.62;97659.41;7308318;19;129479;-43
2023/03/07 04:27:34;;;;;;;44.42;2.70;;;;;;;21.05;57.56;97650.22;7314350;19;129153;-41
2023/03/07 04:29:59;;;;;;;41.45;2.70;;;;;;;21.06;57.83;97647.41;7316353;19;129537;-41
2023/03/07 04:32:25;;;;;;;35.22;2.40;;;;;;;21.06;57.39;97636.16;7315414;19;129395;-42
2023/03/07 04:34:51;;;;;;;42.30;2.87;;;;;;;21.14;56.76;97634.25;7315512;19;129174;-38
2023/03/07 04:37:16;;;;;;;64.70;3.90;;;;;;;21.40;55.87;97629.28;7312607;19;129645;-40
2023/03/07 04:39:41;;;;;;;46.17;2.85;;;;;;;22.00;54.08;97630.69;7316233;19;129222;-41
2023/03/07 04:42:07;;;;;;;13.75;1.40;;;;;;;22.36;53.45;97629.50;7315587;19;129139;-43
2023/03/07 04:44:32;;;;;;;35.35;2.45;;;;;;;22.76;52.30;97617.47;7315311;19;128813;-43
2023/03/07 04:46:57;;;;;;;76.03;4.18;;;;;;;23.20;51.26;97610.78;7312731;19;129102;-42
2023/03/07 04:49:23;;;;;;;59.10;3.72;;;;;;;23.44;50.20;97617.31;7314126;19;129384;-42
2023/03/07 04:51:48;;;;;;;46.15;3.00;;;;;;;23.72;49.29;97615.34;7314396;19;129735;-41
2023/03/07 04:54:13;;;;;;;43.70;2.65;;;;;;;23.86;48.67;97606.47;7312971;19;128884;-43
2023/03/07 04:56:39;;;;;;;65.23;3.70;;;;;;;24.00;48.85;97605.47;7313818;19;129180;-40
2023/03/07 04:59:04;;;;;;;70.63;4.03;;;;;;;24.04;48.43;97604.06;7313586;19;129262;-43
2023/03/07 05:01:29;;;;;;;33.87;2.23;;;;;;;24.17;48.09;97605.88;7313788;19;131050;-43
2023/03/07 05:03:55;;;;;;;47.63;2.90;;;;;;;24.26;47.60;97597.56;7315257;19;128986;-43
2023/03/07 05:06:20;;;;;;;69.32;3.75;;;;;;;24.32;47.52;97596.75;7314901;19;129393;-41
2023/03/07 05:08:46;;;;;;;46.93;2.97;;;;;;;24.42;47.34;97596.31;7311010;19;129315;-42
2023/03/07 05:11:11;;;;;;;48.80;2.88;;;;;;;24.30;47.94;97583.03;7311101;19;129324;-38
2023/03/07 05:13:37;;;;;;;46.75;2.65;;;;;;;24.41;47.58;97590.25;7313453;19;130038;-42
2023/03/07 05:16:02;;;;;;;29.83;1.97;;;;;;;24.33;47.97;97592.28;7314161;19;128921;-42
2023/03/07 05:18:28;;;;;;;45.53;2.75;;;;;;;24.40;47.49;97575.53;7316643;19;129415;-42
2023/03/07 05:20:54;;;;;;;42.63;2.67;;;;;;;24.53;47.00;97587.00;7313083;19;129651;-40
2023/03/07 05:23:20;;;;;;;84.07;4.73;;;;;;;24.63;46.81;97587.34;7314907;19;129168;-43
2023/03/07 05:25:48;;;;;;;58.45;3.28;;;;;;;24.60;47.45;97587.78;7313807;19;129428;-40
2023/03/07 05:28:15;;;;;;;32.85;2.17;;;;;;;24.61;47.56;97581.53;7313874;19;129007;-38
2023/03/07 05:30:41;;;;;;;35.08;2.13;;;;;;;24.58;47.58;97584.56;7311913;19;129507;-43
2023/03/07 05:33:06;;;;;;;57.33;3.13;;;;;;;24.56;47.77;97576.09;7312635;19;129112;-43
2023/03/07 05:35:32;;;;;;;54.97;3.47;;;;;;;24.61;46.76;97578.91;7312177;19;129766;-42
2023/03/07 05:37:57;;;;;;;80.43;4.50;;;;;;;24.60;47.37;97572.00;7309345;19;130509;-43
2023/03/07 05:40:23;;;;;;;60.70;3.63;;;;;;;24.60;46.83;97572.81;7310819;19;130259;-42
2023/03/07 05:42:49;;;;;;;40.80;2.40;;;;;;;24.55;47.65;97577.06;7313117;19;129549;-40
2023/03/07 05:45:14;;;;;;;74.80;4.63;;;;;;;24.39;47.75;97571.25;7306774;19;129307;-38
2023/03/07 05:47:39;;;;;;;52.83;3.07;;;;;;;24.32;47.58;97562.63;7311572;19;129988;-42
2023/03/07 05:50:05;;;;;;;47.80;2.77;;;;;;;24.25;48.09;97568.88;7312096;19;129791;-42
2023/03/07 05:52:31;;;;;;;52.60;2.93;;;;;;;24.14;48.50;97549.34;7311306;19;129274;-42
2023/03/07 05:54:56;;;;;;;51.03;3.20;;;;;;;24.13;47.97;97568.69;7311995;19;129050;-40
2023/03/07 05:57:22;;;;;;;52.88;3.28;;;;;;;24.00;48.11;97571.34;7304538;19;130236;-43
2023/03/07 05:59:47;;;;;;;37.67;2.23;;;;;;;23.84;48.79;97566.50;7311390;19;129186;-42
2023/03/07 06:02:13;;;;;;;83.40;4.67;;;;;;;23.74;49.69;97570.53;7312273;19;129259;-39
2023/03/07 06:04:38;;;;;;;41.73;2.47;;;;;;;23.77;49.60;97576.19;7311396;19;128955;-42
2023/03/07 06:07:04;;;;;;;35.08;2.08;;;;;;;23.70;49.48;97578.00;7310178;19;129196;-39
2023/03/07 06:09:29;;;;;;;45.47;2.40;;;;;;;23.65;49.24;97569.91;7311076;19;129458;-42
2023/03/07 06:11:54;;;;;;;55.37;3.23;;;;;;;23.70;49.10;97575.38;7311463;19;129461;-42
2023/03/07 06:14:20;;;;;;;34.60;2.43;;;;;;;23.55;49.56;97573.97;7310173;19;129497;-41
2023/03/07 06:16:45;;;;;;;33.70;2.10;;;;;;;23.48;50.12;97568.72;7308521;19;129394;-41
2023/03/07 06:19:11;;;;;;;61.00;3.40;;;;;;;23.37;50.02;97574.53;7310092;19;129929;-43
2023/03/07 06:21:36;;;;;;;17.95;1.60;;;;;;;23.18;50.12;97554.31;7309792;19;129568;-44
2023/03/07 06:24:02;;;;;;;50.20;2.87;;;;;;;23.30;50.73;97578.97;7311514;19;129468;-41
2023/03/07 06:26:27;;;;;;;34.60;2.15;;;;;;;23.29;50.42;97577.34;7309462;19;129478;-39
2023/03/07 06:28:52;;;;;;;76.45;4.10;;;;;;;23.25;51.13;97576.91;7308741;19;129911;-43
2023/03/07 06:31:19;;;;;;;44.97;2.70;;;;;;;23.28;50.30;97581.00;7308621;19;129469;-41
2023/03/07 06:33:46;;;;;;;40.13;2.47;;;;;;;23.21;50.93;97559.97;7310335;19;129463;-41
2023/03/07 06:36:14;;;;;;;40.38;2.55;;;;;;;23.38;50.42;97581.41;7310966;19;129369;-39
2023/03/07 06:38:40;;;;;;;57.05;3.20;;;;;;;23.39;50.40;97579.59;7309669;19;129166;-43
2023/03/07 06:41:06;;;;;;;29.23;1.83;;;;;;;23.47;50.15;97574.94;7310153;19;129848;-43
2023/03/07 06:43:32;;;;;;;62.17;3.72;;;;;;;23.50;50.25;97579.81;7309574;19;129431;-42
2023/03/07 06:45:57;;;;;;;31.20;1.90;;;;;;;23.51;50.04;97576.19;7310806;19;130648;-42
2023/03/07 06:48:23;;;;;;;94.30;5.03;;;;;;;23.54;49.57;97564.47;7310584;19;129394;-43
2023/03/07 06:50:48;;;;;;;56.35;3.30;;;;;;;23.62;49.62;97578.19;7307236;19;129191;-42
2023/03/07 06:53:14;;;;;;;64.80;3.77;;;;;;;23.68;49.66;97579.22;7310120;19;130384;-39
2023/03/07 06:55:39;;;;;;;37.60;2.27;;;;;;;23.75;49.24;97578.19;7310189;19;129446;-40
2023/03/07 06:58:05;;;;;;;57.60;3.03;;;;;;;23.80;49.20;97581.03;7312883;19;129178;-42
2023/03/07 07:00:30;;;;;;;35.67;2.27;;;;;;;23.84;49.25;97571.75;7309783;19;129078;-41
2023/03/07 07:02:56;;;;;;;40.97;2.37;;;;;;;23.78;49.21;97554.19;7311805;19;128976;-41
2023/03/07 07:05:21;;;;;;;44.15;2.45;;;;;;;23.83;48.85;97570.09;7310470;19;129552;-42
2023/03/07 07:07:47;;;;;;;70.50;3.77;;;;;;;23.98;49.28;97573.38;7308542;19;130166;-38
2023/03/07 07:10:12;;;;;;;53.42;3.17;;;;;;;24.01;48.99;97578.22;7310235;19;129774;-43
2023/03/07 07:12:37;;;;;;;37.20;2.23;;;;;;;24.07;48.79;97571.34;7311204;19;129695;-43
2023/03/07 07:15:04;;;;;;;102.35;6.05;;;;;;;24.09;49.06;97575.38;7306945;19;129464;-41
2023/03/07 07:17:37;;;;;;;42.72;2.35;;;;;;;23.98;49.17;97572.56;7309351;19;131388;-40
2023/03/07 07:20:04;;;;;;;48.63;2.78;;;;;;;23.95;48.88;97567.69;7309062;19;128848;-42
2023/03/07 07:22:30;;;;;;;43.47;2.47;;;;;;;23.85;49.55;97573.34;7310833;19;129524;-42
2023/03/07 07:24:56;;;;;;;47.58;2.75;;;;;;;23.79;48.93;97571.53;7309753;19;129497;-41
2023/03/07 07:27:21;;;;;;;40.53;2.47;;;;;;;23.69;49.74;97576.38;7307752;19;129563;-44
2023/03/07 07:29:47;;;;;;;45.78;2.58;;;;;;;23.61;50.16;97571.34;7310529;19;129056;-40
2023/03/07 07:32:12;;;;;;;43.33;2.45;;;;;;;23.61;49.66;97570.53;7310277;19;128878;-40
2023/03/07 07:34:37;;;;;;;34.33;2.07;;;;;;;23.59;49.57;97565.47;7307754;19;130297;-40
2023/03/07 07:37:03;;;;;;;51.07;2.80;;;;;;;23.63;49.98;97571.13;7309583;19;129056;-42
2023/03/07 07:39:28;;;;;;;42.38;2.50;;;;;;;23.71;49.38;97566.50;7310469;19;129467;-37
2023/03/07 07:41:53;;;;;;;29.97;1.83;;;;;;;23.67;49.83;97573.16;7309648;19;128742;-39
2023/03/07 07:44:19;;;;;;;61.87;3.30;;;;;;;23.74;49.47;97568.72;7309636;19;129577;-44
2023/03/07 07:46:44;;;;;;;50.93;3.03;;;;;;;23.66;49.61;97558.44;7309083;19;130005;-43
2023/03/07 07:49:09;;;;;;;59.67;3.53;;;;;;;23.84;49.75;97566.50;7310159;19;129142;-38
2023/03/07 07:51:35;;;;;;;29.90;1.73;;;;;;;23.85;49.83;97577.81;7310730;19;129015;-41
2023/03/07 07:54:00;;;;;;;54.75;2.97;;;;;;;24.01;49.07;97565.09;7307865;19;129256;-43
2023/03/07 07:56:26;;;;;;;16.88;1.63;;;;;;;24.07;48.86;97572.16;7308444;19;130196;-41
2023/03/07 07:58:51;;;;;;;38.97;2.37;;;;;;;23.99;49.29;97564.50;7309912;19;129355;-41
2023/03/07 08:01:22;;;;;;;51.38;2.88;;;;;;;24.11;49.22;97568.09;7309631;19;129216;-39
2023/03/07 08:03:48;;;;;;;66.00;3.55;;;;;;;24.12;49.11;97564.47;7316637;19;129046;-39
2023/03/07 08:06:27;;;;;;;33.90;2.03;;;;;;;24.11;49.08;97568.09;7316069;19;129315;-42
2023/03/07 08:08:54;;;;;;;41.78;2.40;;;;;;;24.16;48.47;97562.25;7317255;19;129124;-41
2023/03/07 08:11:20;;;;;;;46.55;2.72;;;;;;;23.97;49.07;97539.41;7314777;19;129205;-40
2023/03/07 08:13:45;;;;;;;32.08;2.05;;;;;;;23.96;49.22;97564.88;7315012;19;129434;-44
2023/03/07 08:16:14;;;;;;;64.93;3.53;;;;;;;23.89;49.68;97564.06;7314944;19;129198;-43
2023/03/07 08:18:40;;;;;;;51.38;2.85;;;;;;;23.90;49.11;97557.78;7317481;19;129500;-41
2023/03/07 08:21:06;;;;;;;31.40;1.83;;;;;;;23.81;49.72;97556.41;7316150;19;129198;-41
2023/03/07 08:23:31;;;;;;;40.80;2.17;;;;;;;23.77;49.68;97554.38;7316783;19;129749;-41
2023/03/07 08:26:04;;;;;;;41.33;2.20;;;;;;;23.68;50.14;97559.03;7315323;19;130660;-44
2023/03/07 08:28:30;;;;;;;45.30;2.58;;;;;;;23.74;50.26;97557.41;7314234;19;129062;-44
2023/03/07 08:30:55;;;;;;;37.97;2.23;;;;;;;23.73;49.54;97556.63;7313878;19;129408;-42
2023/03/07 08:33:21;;;;;;;61.57;3.30;;;;;;;23.76;50.11;97550.16;7311517;19;130193;-43
2023/03/07 08:35:46;;;;;;;57.13;3.23;;;;;;;23.82;49.67;97544.91;7313512;19;129643;-38
2023/03/07 08:38:11;;;;;;;47.73;2.67;;;;;;;23.87;49.82;97550.34;7316224;19;128963;-45
2023/03/07 08:40:37;;;;;;;28.85;1.67;;;;;;;23.89;49.45;97548.31;7313558;19;129211;-42
2023/03/07 08:43:02;;;;;;;91.87;4.90;;;;;;;24.00;49.07;97547.72;7314460;19;129575;-41
2023/03/07 08:45:28;;;;;;;29.52;1.67;;;;;;;24.06;49.52;97546.09;7314294;19;131329;-42
2023/03/07 08:47:55;;;;;;;41.57;2.23;;;;;;;24.05;48.96;97536.59;7313698;19;129107;-42
2023/03/07 08:50:21;;;;;;;;;;;;;;;24.00;49.41;97537.22;7312899;19;128937;-43
2023/03/07 08:52:46;;;;;;;45.80;2.40;;;;;;;24.13;49.21;97537.19;7316103;19;129122;-39
2023/03/07 08:55:11;;;;;;;97.97;5.80;;;;;;;24.11;48.55;97541.06;7309536;19;129557;-42
2023/03/07 08:57:37;;;;;;;29.40;1.73;;;;;;;24.14;48.93;97549.34;7314423;19;129851;-42
2023/03/07 09:00:04;;;;;;;158.20;8.40;;;;;;;24.08;48.55;97531.75;7312278;19;129251;-40
2023/03/07 09:02:29;;;;;;;46.90;2.47;;;;;;;24.03;49.12;97544.69;7314721;19;129896;-42
2023/03/07 09:04:54;;;;;;;61.77;3.30;;;;;;;23.98;49.26;97547.13;7314145;19;129569;-42
2023/03/07 09:07:20;;;;;;;45.77;2.63;;;;;;;23.84;49.21;97552.56;7314983;19;129512;-40
2023/03/07 09:09:45;;;;;;;37.47;2.23;;;;;;;23.77;49.35;97555.19;7314798;19;129746;-44
2023/03/07 09:12:10;;;;;;;68.43;3.53;;;;;;;23.69;49.92;97547.53;7313655;19;129032;-44
2023/03/07 09:14:36;;;;;;;35.22;1.90;;;;;;;23.72;49.64;97552.38;7313616;19;129484;-43
2023/03/07 09:17:01;;;;;;;31.53;1.93;;;;;;;23.62;50.36;97553.78;7314220;19;129328;-42
2023/03/07 09:19:27;;;;;;;31.67;1.80;;;;;;;23.69;50.54;97547.53;7314162;19;129706;-43
2023/03/07 09:21:52;;;;;;;54.70;2.75;;;;;;;23.76;49.60;97556.22;7314996;19;130147;-42
2023/03/07 09:24:17;;;;;;;35.97;2.30;;;;;;;23.61;49.92;97518.88;7314229;19;129189;-43
2023/03/07 09:26:43;;;;;;;50.60;2.63;;;;;;;23.83;49.79;97529.97;7312806;19;129052;-40
2023/03/07 09:29:08;;;;;;;90.97;4.73;;;;;;;23.80;50.16;97538.25;7312362;19;128721;-42
2023/03/07 09:31:33;;;;;;;47.17;2.50;;;;;;;23.88;49.87;97535.41;7313448;19;130775;-39
2023/03/07 09:33:59;;;;;;;14.97;1.03;;;;;;;23.96;49.08;97533.38;7312862;19;129632;-41
2023/03/07 09:36:24;;;;;;;34.70;1.90;;;;;;;23.98;49.06;97544.50;7312573;19;129720;-41
2023/03/07 09:38:50;;;;;;;53.03;2.83;;;;;;;24.03;48.91;97528.94;7314349;19;129435;-43
2023/03/07 09:41:34;;;;;;;54.67;2.97;;;;;;;23.99;48.86;97513.81;7312174;19;128937;-41
2023/03/07 09:44:22;;;;;;;37.08;2.05;;;;;;;24.00;49.58;97510.97;7313349;19;129463;-42
2023/03/07 09:46:47;;;;;;;35.95;1.98;;;;;;;23.96;49.59;97514.19;7312584;19;129049;-43
2023/03/07 09:49:40;;;;;;;83.87;4.50;;;;;;;23.84;49.41;97513.19;7313019;19;128990;-43
2023/03/07 09:52:13;;;;;;;34.83;1.92;;;;;;;23.75;49.58;97509.97;7310951;19;129869;-39
2023/03/07 09:54:50;;;;;;;34.22;1.92;;;;;;;23.70;50.12;97507.16;7311276;19;129356;-39
2023/03/07 09:57:18;;;;;;;;;;;;;;;23.60;50.27;97503.34;7311242;19;129414;-36
2023/03/07 09:59:45;;;;;;;62.37;3.17;;;;;;;23.58;49.97;97508.78;7312547;19;129890;-42
2023/03/07 10:02:26;;;;;;;49.30;2.58;;;;;;;23.58;50.70;97514.03;7313546;19;129593;-41
2023/03/07 10:04:58;;;;;;;37.20;2.15;;;;;;;23.57;50.04;97507.16;7312569;19;129509;-40
2023/03/07 10:07:26;;;;;;;46.33;2.75;;;;;;;23.63;50.13;97501.13;7311419;19;129173;-42
2023/03/07 10:10:06;;;;;;;61.72;3.40;;;;;;;23.65;50.00;97498.28;7311664;19;129531;-41
2023/03/07 10:13:01;;;;;;;42.17;2.45;;;;;;;23.70;50.39;97496.66;7312901;19;129258;-41
2023/03/07 10:15:34;;;;;;;55.85;3.13;;;;;;;23.69;50.32;97495.06;7309903;19;129748;-41
2023/03/07 10:18:19;;;;;;;46.08;2.28;;;;;;;23.78;49.58;97498.28;7313521;19;129210;-42
2023/03/07 10:21:02;;;;;;;78.35;4.15;;;;;;;23.77;49.94;97492.22;7310065;19;129613;-41
2023/03/07 10:23:33;;;;;;;53.75;2.75;;;;;;;23.85;49.48;97489.38;7310586;19;129078;-42
2023/03/07 10:26:08;;;;;;;53.83;2.92;;;;;;;23.84;49.95;97485.16;7311910;19;129179;-42
2023/03/07 10:28:38;;;;;;;47.72;2.65;;;;;;;23.86;49.74;97490.19;7312892;19;129928;-42
2023/03/07 10:31:38;;;;;;;33.45;1.95;;;;;;;23.79;49.68;97495.44;7311401;19;129356;-39
2023/03/07 10:34:27;;;;;;;35.47;2.08;;;;;;;23.70;49.92;97483.53;7309361;19;129208;-41
2023/03/07 10:37:20;;;;;;;35.75;1.95;;;;;;;23.62;49.86;97488.22;7312716;19;129301;-37
2023/03/07 10:39:54;;;;;;;51.70;2.72;;;;;;;23.54;50.45;97489.22;7311428;19;129126;-40
2023/03/07 10:42:22;;;;;;;26.02;1.60;;;;;;;23.45;50.69;97482.56;7311616;19;129051;-42
2023/03/07 10:44:49;;;;;;;32.78;1.88;;;;;;;23.51;51.03;97481.75;7311556;19;129268;-42
2023/03/07 10:47:21;;;;;;;61.92;3.13;;;;;;;23.51;50.20;97481.75;7311499;19;129750;-38
2023/03/07 10:49:49;;;;;;;54.42;2.95;;;;;;;23.51;50.19;97473.88;7310024;19;129016;-40
2023/03/07 10:52:30;;;;;;;57.15;3.20;;;;;;;23.58;50.48;97472.06;7310120;19;129178;-41
2023/03/07 10:55:33;;;;;;;27.17;1.67;;;;;;;23.64;50.61;97471.25;7309751;19;130410;-43
2023/03/07 10:58:18;;;;;;;32.55;1.90;;;;;;;23.63;50.42;97459.16;7311808;19;131310;-43
2023/03/07 11:00:45;;;;;;;41.70;2.22;;;;;;;23.77;50.36;97465.97;7308111;19;129065;-42
2023/03/07 11:03:30;;;;;;;41.65;2.35;;;;;;;23.71;49.56;97451.06;7311185;19;128901;-39
2023/03/07 11:05:56;;;;;;;41.97;2.28;;;;;;;23.86;49.47;97446.38;7309500;19;129228;-41
2023/03/07 11:08:31;;;;;;;40.07;2.37;;;;;;;23.86;50.19;97440.31;7312268;19;130332;-39
2023/03/07 11:10:58;;;;;;;44.25;2.55;;;;;;;23.83;50.05;97438.91;7309497;19;129590;-42
2023/03/07 11:13:24;;;;;;;52.08;2.70;;;;;;;23.79;50.20;97429.84;7312303;19;129541;-37
2023/03/07 11:15:50;;;;;;;49.07;2.73;;;;;;;23.77;49.59;97423.19;7310535;19;129531;-43
2023/03/07 11:18:35;;;;;;;50.33;2.72;;;;;;;23.64;50.56;97431.91;7309019;19;129236;-42